createdAt,value
2018-03-20T00:00:13.947Z,62.71
2018-03-20T00:01:13.958Z,63.04
2018-03-20T00:02:13.944Z,63.51
2018-03-20T00:03:13.952Z,63.77
2018-03-20T00:04:13.960Z,63.71
2018-03-20T00:05:13.963Z,64.5
2018-03-20T00:06:13.992Z,64.23
2018-03-20T00:07:13.959Z,64.42
2018-03-20T00:08:13.988Z,63.85
2018-03-20T00:09:13.974Z,63.99
2018-03-20T00:10:13.972Z,63.78
2018-03-20T00:11:14.257Z,63.6
2018-03-20T00:12:13.991Z,64.07
2018-03-20T00:13:13.993Z,64.24
2018-03-20T00:14:13.992Z,64.12
2018-03-20T00:15:14.009Z,63.91
2018-03-20T00:16:14.020Z,63.36
2018-03-20T00:17:13.987Z,63.39
2018-03-20T00:18:13.990Z,62.59
2018-03-20T00:19:13.995Z,62.96
2018-03-20T00:20:13.998Z,61.81
2018-03-20T00:21:14.021Z,62.14
2018-03-20T00:22:14.000Z,62.15
2018-03-20T00:23:14.012Z,61.98
2018-03-20T00:24:14.002Z,62.29
2018-03-20T00:25:14.009Z,62.16
2018-03-20T00:26:14.018Z,61.71
2018-03-20T00:27:14.076Z,61.07
2018-03-20T00:28:14.014Z,60.91
2018-03-20T00:29:14.023Z,60.28
2018-03-20T00:30:14.015Z,60.99
2018-03-20T00:31:14.026Z,60.53
2018-03-20T00:32:14.057Z,59.97
2018-03-20T00:33:14.049Z,60.44
2018-03-20T00:34:14.035Z,61.26
2018-03-20T00:35:14.040Z,61.64
2018-03-20T00:36:14.050Z,61.16
2018-03-20T00:37:14.055Z,60.8
2018-03-20T00:38:14.065Z,60.97
2018-03-20T00:39:14.073Z,60.72
2018-03-20T00:40:14.040Z,60.63
2018-03-20T00:41:14.068Z,59.5
2018-03-20T00:42:14.048Z,59.54
2018-03-20T00:43:14.064Z,59.77
2018-03-20T00:44:14.064Z,60.03
2018-03-20T00:45:14.058Z,60.38
2018-03-20T00:46:14.230Z,60.41
2018-03-20T00:47:14.070Z,60.43
2018-03-20T00:48:14.074Z,60.62
2018-03-20T00:49:14.078Z,60.58
2018-03-20T00:50:14.126Z,61.04
2018-03-20T00:51:14.116Z,61.12
2018-03-20T00:52:14.086Z,61.28
2018-03-20T00:53:14.090Z,61.39
2018-03-20T00:54:14.093Z,61.32
2018-03-20T00:55:14.095Z,61.38
2018-03-20T00:56:14.106Z,61.06
2018-03-20T00:57:14.123Z,60.93
2018-03-20T00:58:14.087Z,60.98
2018-03-20T00:59:14.111Z,61.19
2018-03-20T01:00:14.107Z,61.57
2018-03-20T01:01:14.148Z,62.14
2018-03-20T01:02:14.120Z,62.42
2018-03-20T01:03:14.110Z,62.35
2018-03-20T01:04:14.128Z,62.22
2018-03-20T01:05:14.120Z,62.78
2018-03-20T01:06:14.166Z,62.85
2018-03-20T01:07:14.124Z,62.84
2018-03-20T01:08:14.127Z,62.64
2018-03-20T01:09:14.128Z,62.58
2018-03-20T01:10:14.160Z,62.82
2018-03-20T01:11:14.149Z,63.28
2018-03-20T01:12:14.143Z,63.54
2018-03-20T01:13:14.159Z,63.62
2018-03-20T01:14:14.158Z,63.93
2018-03-20T01:15:14.149Z,64.02
2018-03-20T01:16:14.158Z,64.32
2018-03-20T01:17:14.188Z,65.43
2018-03-20T01:18:14.179Z,65.59
2018-03-20T01:19:14.165Z,65.6
2018-03-20T01:20:14.177Z,65.51
2018-03-20T01:21:14.181Z,65.87
2018-03-20T01:22:14.352Z,65.7
2018-03-20T01:23:14.187Z,65.65
2018-03-20T01:24:14.199Z,65.97
2018-03-20T01:25:14.384Z,66.02
2018-03-20T01:26:14.191Z,66.06
2018-03-20T01:27:14.220Z,66.18
2018-03-20T01:28:14.196Z,65.66
2018-03-20T01:29:14.188Z,65.87
2018-03-20T01:30:14.192Z,65.34
2018-03-20T01:31:14.196Z,65.82
2018-03-20T01:32:14.202Z,65.86
2018-03-20T01:33:14.207Z,65.93
2018-03-20T01:34:14.263Z,65.37
2018-03-20T01:35:14.222Z,65.7
2018-03-20T01:36:14.240Z,65.92
2018-03-20T01:37:14.242Z,65.68
2018-03-20T01:38:14.218Z,65.33
2018-03-20T01:39:14.243Z,65.28
2018-03-20T01:40:14.231Z,65.29
2018-03-20T01:41:14.229Z,65.06
2018-03-20T01:42:14.269Z,65.92
2018-03-20T01:43:14.255Z,66.06
2018-03-20T01:44:14.242Z,66.26
2018-03-20T01:45:14.258Z,66.24
2018-03-20T01:46:14.276Z,66.26
2018-03-20T01:47:14.284Z,66.24
2018-03-20T01:48:14.272Z,66.42
2018-03-20T01:49:14.260Z,66.69
2018-03-20T01:50:14.269Z,66.76
2018-03-20T01:51:14.309Z,66.84
2018-03-20T01:52:14.300Z,67.11
2018-03-20T01:53:14.306Z,67.46
2018-03-20T01:54:14.375Z,67.82
2018-03-20T01:55:14.312Z,67.5
2018-03-20T01:56:14.319Z,67.32
2018-03-20T01:57:14.350Z,67.49
2018-03-20T01:58:14.311Z,67.53
2018-03-20T01:59:14.299Z,67.05
2018-03-20T02:00:14.353Z,67.05
2018-03-20T02:01:14.311Z,67.54
2018-03-20T02:02:14.328Z,67.01
2018-03-20T02:03:14.327Z,66.54
2018-03-20T02:04:14.328Z,66.54
2018-03-20T02:05:14.301Z,66.51
2018-03-20T02:06:14.309Z,66.72
2018-03-20T02:07:14.333Z,67.34
2018-03-20T02:08:14.402Z,67.45
2018-03-20T02:09:14.463Z,67.08
2018-03-20T02:10:14.338Z,65.53
2018-03-20T02:11:14.353Z,66.13
2018-03-20T02:12:14.351Z,66.54
2018-03-20T02:13:14.336Z,67.77
2018-03-20T02:14:14.588Z,67.58
2018-03-20T02:15:14.334Z,67.3
2018-03-20T02:16:14.338Z,67.32
2018-03-20T02:17:14.506Z,67.28
2018-03-20T02:18:14.345Z,67.5
2018-03-20T02:19:14.354Z,67.13
2018-03-20T02:20:14.353Z,66.76
2018-03-20T02:21:14.350Z,66.63
2018-03-20T02:22:14.375Z,66.78
2018-03-20T02:23:14.356Z,67.04
2018-03-20T02:24:14.355Z,66.84
2018-03-20T02:25:14.376Z,66.58
2018-03-20T02:26:14.363Z,67.65
2018-03-20T02:27:14.380Z,68.1
2018-03-20T02:28:14.355Z,69.21
2018-03-20T02:29:14.346Z,68.99
2018-03-20T02:30:14.381Z,69.05
2018-03-20T02:31:14.391Z,68.79
2018-03-20T02:32:14.385Z,68.82
2018-03-20T02:33:14.383Z,69.2
2018-03-20T02:34:14.387Z,69.72
2018-03-20T02:35:14.396Z,69.48
2018-03-20T02:36:14.404Z,69.2
2018-03-20T02:37:14.414Z,69.52
2018-03-20T02:38:14.420Z,69.41
2018-03-20T02:39:14.396Z,68.91
2018-03-20T02:40:14.405Z,68.85
2018-03-20T02:41:14.398Z,69.43
2018-03-20T02:42:14.402Z,69.24
2018-03-20T02:43:14.410Z,68.8
2018-03-20T02:44:14.398Z,68.51
2018-03-20T02:45:14.395Z,68.39
2018-03-20T02:46:14.406Z,68.3
2018-03-20T02:47:14.418Z,68.43
2018-03-20T02:48:14.411Z,67.95
2018-03-20T02:49:14.433Z,67.82
2018-03-20T02:50:14.440Z,67.98
2018-03-20T02:51:14.451Z,68.2
2018-03-20T02:52:14.422Z,68.3
2018-03-20T02:53:14.444Z,68.53
2018-03-20T02:54:14.484Z,68.58
2018-03-20T02:55:14.443Z,68.35
2018-03-20T02:56:14.434Z,68.13
2018-03-20T02:57:14.443Z,68.83
2018-03-20T02:58:14.455Z,69.13
2018-03-20T02:59:14.463Z,69.19
2018-03-20T03:00:14.456Z,69.48
2018-03-20T03:01:14.480Z,69.41
2018-03-20T03:02:14.459Z,69.46
2018-03-20T03:03:14.464Z,69.73
2018-03-20T03:04:14.475Z,69.78
2018-03-20T03:05:14.474Z,69.87
2018-03-20T03:06:14.457Z,69.7
2018-03-20T03:07:14.466Z,69.62
2018-03-20T03:08:14.469Z,69.65
2018-03-20T03:09:14.493Z,69.79
2018-03-20T03:10:14.468Z,69.95
2018-03-20T03:11:14.468Z,70.41
2018-03-20T03:12:14.499Z,70.67
2018-03-20T03:13:14.473Z,71.22
2018-03-20T03:14:14.561Z,71.56
2018-03-20T03:15:14.482Z,71.71
2018-03-20T03:16:14.529Z,71.92
2018-03-20T03:17:14.524Z,71.81
2018-03-20T03:18:14.500Z,71.62
2018-03-20T03:19:14.502Z,71.61
2018-03-20T03:20:14.507Z,71.42
2018-03-20T03:21:14.527Z,70.76
2018-03-20T03:22:14.548Z,70.35
2018-03-20T03:23:14.558Z,70.86
2018-03-20T03:24:14.527Z,70.55
2018-03-20T03:25:14.528Z,70.21
2018-03-20T03:26:14.562Z,70.62
2018-03-20T03:27:14.533Z,70.54
2018-03-20T03:28:14.631Z,70.56
2018-03-20T03:29:14.530Z,70.34
2018-03-20T03:30:14.571Z,70.82
2018-03-20T03:31:14.555Z,71.2
2018-03-20T03:32:14.581Z,71.15
2018-03-20T03:33:14.580Z,71.12
2018-03-20T03:34:14.579Z,71.02
2018-03-20T03:35:14.569Z,71.17
2018-03-20T03:36:14.562Z,71.38
2018-03-20T03:37:14.560Z,71.21
2018-03-20T03:38:14.835Z,71.44
2018-03-20T03:39:14.597Z,71.56
2018-03-20T03:40:14.574Z,71.85
2018-03-20T03:41:14.582Z,71.89
2018-03-20T03:42:14.601Z,71.45
2018-03-20T03:43:14.623Z,71.52
2018-03-20T03:44:14.595Z,71.48
2018-03-20T03:45:14.600Z,71.47
2018-03-20T03:46:14.596Z,71.31
2018-03-20T03:47:14.592Z,71.21
2018-03-20T03:48:14.632Z,71.25
2018-03-20T03:49:14.616Z,71.14
2018-03-20T03:50:14.601Z,70.88
2018-03-20T03:51:14.652Z,70.8
2018-03-20T03:52:14.608Z,70.13
2018-03-20T03:53:14.629Z,70.33
2018-03-20T03:54:14.602Z,70.45
2018-03-20T03:55:14.611Z,70.47
2018-03-20T03:56:14.641Z,70.3
2018-03-20T03:57:14.671Z,70.39
2018-03-20T03:58:14.614Z,70.59
2018-03-20T03:59:14.647Z,70.05
2018-03-20T04:00:14.640Z,70.04
2018-03-20T04:01:14.818Z,69.92
2018-03-20T04:02:14.638Z,70.4
2018-03-20T04:03:14.649Z,70.21
2018-03-20T04:04:14.677Z,70.17
2018-03-20T04:05:14.640Z,69.95
2018-03-20T04:06:14.658Z,69.82
2018-03-20T04:07:14.663Z,70.43
2018-03-20T04:08:14.662Z,70.52
2018-03-20T04:09:14.673Z,70.65
2018-03-20T04:10:14.683Z,70.93
2018-03-20T04:11:14.646Z,70.93
2018-03-20T04:12:14.658Z,70.88
2018-03-20T04:13:14.663Z,70.66
2018-03-20T04:14:14.676Z,71.11
2018-03-20T04:15:14.681Z,71.22
2018-03-20T04:16:14.671Z,71.15
2018-03-20T04:17:14.690Z,71.37
2018-03-20T04:18:14.854Z,71.35
2018-03-20T04:19:14.688Z,71.45
2018-03-20T04:20:14.698Z,71.75
2018-03-20T04:21:14.720Z,72.02
2018-03-20T04:22:14.708Z,72.12
2018-03-20T04:23:14.703Z,72.63
2018-03-20T04:24:14.705Z,72.95
2018-03-20T04:25:14.699Z,73.42
2018-03-20T04:26:14.717Z,73.12
2018-03-20T04:27:14.714Z,73.41
2018-03-20T04:28:14.730Z,73.26
2018-03-20T04:29:14.753Z,73.39
2018-03-20T04:30:14.734Z,73.25
2018-03-20T04:31:14.729Z,73.26
2018-03-20T04:32:14.738Z,73.32
2018-03-20T04:33:14.732Z,73.33
2018-03-20T04:34:14.777Z,73.32
2018-03-20T04:35:14.767Z,73.34
2018-03-20T04:36:14.760Z,73.14
2018-03-20T04:37:14.761Z,73.13
2018-03-20T04:38:14.782Z,72.99
2018-03-20T04:39:14.774Z,72.79
2018-03-20T04:40:14.794Z,73.04
2018-03-20T04:41:14.790Z,73.04
2018-03-20T04:42:14.797Z,72.83
2018-03-20T04:43:14.806Z,72.72
2018-03-20T04:44:14.796Z,72.7
2018-03-20T04:45:14.820Z,72.27
2018-03-20T04:46:14.822Z,72.31
2018-03-20T04:47:14.795Z,71.8
2018-03-20T04:48:14.871Z,72.26
2018-03-20T04:49:14.821Z,72.23
2018-03-20T04:50:14.810Z,72.03
2018-03-20T04:51:14.835Z,72.02
2018-03-20T04:52:14.846Z,72.01
2018-03-20T04:53:14.836Z,71.86
2018-03-20T04:54:14.842Z,72.1
2018-03-20T04:55:14.852Z,71.67
2018-03-20T04:56:14.873Z,71.53
2018-03-20T04:57:14.858Z,71.55
2018-03-20T04:58:14.841Z,71.54
2018-03-20T04:59:15.076Z,71.26
2018-03-20T05:00:14.874Z,71.11
2018-03-20T05:01:14.874Z,71.4
2018-03-20T05:02:14.850Z,71.22
2018-03-20T05:03:14.882Z,71.05
2018-03-20T05:04:14.875Z,71.16
2018-03-20T05:05:14.868Z,71.43
2018-03-20T05:06:14.881Z,71.18
2018-03-20T05:07:14.902Z,71.12
2018-03-20T05:08:14.882Z,71.13
2018-03-20T05:09:14.891Z,71.21
2018-03-20T05:10:14.905Z,70.91
2018-03-20T05:11:14.924Z,70.86
2018-03-20T05:12:15.081Z,70.75
2018-03-20T05:13:14.894Z,70.64
2018-03-20T05:14:14.903Z,70.58
2018-03-20T05:15:14.900Z,70.88
2018-03-20T05:16:14.925Z,70.43
2018-03-20T05:17:14.911Z,70.82
2018-03-20T05:18:14.904Z,70.92
2018-03-20T05:19:14.917Z,71
2018-03-20T05:20:14.926Z,70.85
2018-03-20T05:21:14.947Z,71.09
2018-03-20T05:22:14.939Z,71.18
2018-03-20T05:23:14.927Z,70.87
2018-03-20T05:24:14.937Z,70.77
2018-03-20T05:25:14.933Z,71.26
2018-03-20T05:26:14.934Z,70.82
2018-03-20T05:27:14.954Z,70.8
2018-03-20T05:28:14.952Z,70.77
2018-03-20T05:29:14.940Z,70.57
2018-03-20T05:30:14.954Z,70.45
2018-03-20T05:31:14.945Z,70.47
2018-03-20T05:32:14.961Z,70.35
2018-03-20T05:33:14.966Z,70.6
2018-03-20T05:34:14.976Z,70.3
2018-03-20T05:35:14.988Z,70.18
2018-03-20T05:36:14.982Z,70.79
2018-03-20T05:37:14.972Z,70.65
2018-03-20T05:38:14.982Z,70.52
2018-03-20T05:39:14.977Z,70.62
2018-03-20T05:40:15.006Z,70.6
2018-03-20T05:41:14.981Z,70.58
2018-03-20T05:42:14.990Z,70.54
2018-03-20T05:43:15.011Z,70.47
2018-03-20T05:44:14.998Z,70.39
2018-03-20T05:45:15.014Z,70.56
2018-03-20T05:46:14.997Z,70.59
2018-03-20T05:47:14.994Z,70.68
2018-03-20T05:48:15.027Z,70.77
2018-03-20T05:49:15.010Z,70.7
2018-03-20T05:50:15.023Z,70.64
2018-03-20T05:51:15.035Z,70.58
2018-03-20T05:52:15.015Z,70.48
2018-03-20T05:53:15.034Z,70.31
2018-03-20T05:54:15.032Z,70.1
2018-03-20T05:55:15.081Z,70.14
2018-03-20T05:56:15.038Z,69.85
2018-03-20T05:57:15.033Z,70.18
2018-03-20T05:58:15.476Z,70.26
2018-03-20T05:59:15.032Z,70.16
2018-03-20T06:00:15.077Z,70.07
2018-03-20T06:01:15.034Z,69.88
2018-03-20T06:02:15.037Z,69.92
2018-03-20T06:03:15.190Z,70.25
2018-03-20T06:04:15.042Z,70.35
2018-03-20T06:05:15.033Z,70.44
2018-03-20T06:06:15.283Z,70.6
2018-03-20T06:07:15.068Z,70.6
2018-03-20T06:08:15.479Z,70.46
2018-03-20T06:09:15.070Z,70.44
2018-03-20T06:10:15.068Z,70.46
2018-03-20T06:11:15.068Z,70.72
2018-03-20T06:12:15.075Z,70.79
2018-03-20T06:13:15.109Z,70.64
2018-03-20T06:14:15.073Z,70.48
2018-03-20T06:15:15.084Z,70.57
2018-03-20T06:16:15.087Z,70.91
2018-03-20T06:17:15.100Z,70.55
2018-03-20T06:18:15.106Z,70.34
2018-03-20T06:19:15.081Z,70.16
2018-03-20T06:20:15.139Z,70.53
2018-03-20T06:21:15.079Z,70.53
2018-03-20T06:22:15.104Z,70.09
2018-03-20T06:23:15.122Z,70.03
2018-03-20T06:24:15.114Z,70.24
2018-03-20T06:25:15.103Z,70.58
2018-03-20T06:26:15.129Z,70.53
2018-03-20T06:27:21.703Z,70.31
2018-03-20T06:28:21.860Z,70.09
2018-03-20T06:29:19.007Z,70.17
2018-03-20T06:30:21.351Z,70.03
2018-03-20T06:31:22.066Z,70.03
2018-03-20T06:32:15.134Z,69.78
2018-03-20T06:33:15.134Z,69.79
2018-03-20T06:34:15.132Z,69.54
2018-03-20T06:35:15.187Z,69.47
2018-03-20T06:36:15.144Z,69.24
2018-03-20T06:37:15.148Z,69.15
2018-03-20T06:38:15.158Z,69.36
2018-03-20T06:39:15.160Z,69.17
2018-03-20T06:40:15.173Z,68.91
2018-03-20T06:41:15.168Z,68.7
2018-03-20T06:42:15.188Z,68.58
2018-03-20T06:43:15.169Z,68.33
2018-03-20T06:44:15.172Z,68.14
2018-03-20T06:45:15.211Z,68.06
2018-03-20T06:46:15.190Z,67.76
2018-03-20T06:47:15.168Z,68.15
2018-03-20T06:48:15.214Z,68.51
2018-03-20T06:49:15.204Z,68.67
2018-03-20T06:50:15.192Z,68.8
2018-03-20T06:51:15.186Z,68.56
2018-03-20T06:52:15.213Z,68.63
2018-03-20T06:53:15.193Z,68.74
2018-03-20T06:54:15.193Z,68.93
2018-03-20T06:55:15.199Z,68.85
2018-03-20T06:56:15.216Z,68.45
2018-03-20T06:57:15.205Z,68.58
2018-03-20T06:58:15.239Z,68.58
2018-03-20T06:59:15.243Z,68.42
2018-03-20T07:00:15.208Z,67.88
2018-03-20T07:01:15.230Z,68.28
2018-03-20T07:02:15.227Z,67.97
2018-03-20T07:03:15.263Z,68.08
2018-03-20T07:04:15.243Z,68.23
2018-03-20T07:05:15.229Z,68.25
2018-03-20T07:06:15.426Z,68.04
2018-03-20T07:07:15.244Z,67.7
2018-03-20T07:08:15.266Z,67.68
2018-03-20T07:09:15.253Z,67.94
2018-03-20T07:10:15.260Z,67.95
2018-03-20T07:11:15.268Z,68.12
2018-03-20T07:12:15.262Z,68.15
2018-03-20T07:13:15.277Z,67.56
2018-03-20T07:14:15.294Z,67.58
2018-03-20T07:15:15.280Z,67.45
2018-03-20T07:16:15.329Z,67.15
2018-03-20T07:17:15.298Z,67.2
2018-03-20T07:18:15.283Z,67.07
2018-03-20T07:19:15.285Z,67.15
2018-03-20T07:20:15.304Z,67.03
2018-03-20T07:21:15.287Z,67.01
2018-03-20T07:22:15.288Z,66.72
2018-03-20T07:23:15.300Z,66.73
2018-03-20T07:24:15.330Z,66.77
2018-03-20T07:25:15.316Z,66.36
2018-03-20T07:26:15.317Z,65.85
2018-03-20T07:27:15.324Z,66.01
2018-03-20T07:28:15.598Z,65.74
2018-03-20T07:29:15.350Z,65.89
2018-03-20T07:30:15.376Z,66.19
2018-03-20T07:31:15.342Z,65.68
2018-03-20T07:32:15.331Z,65.05
2018-03-20T07:33:15.334Z,65.22
2018-03-20T07:34:15.362Z,65.37
2018-03-20T07:35:15.344Z,65.76
2018-03-20T07:36:15.358Z,65.02
2018-03-20T07:37:15.350Z,65.31
2018-03-20T07:38:15.364Z,65.11
2018-03-20T07:39:15.528Z,65.11
2018-03-20T07:40:15.366Z,65.19
2018-03-20T07:41:15.357Z,65.17
2018-03-20T07:42:15.427Z,64.74
2018-03-20T07:43:15.367Z,64.61
2018-03-20T07:44:15.412Z,64.82
2018-03-20T07:45:15.395Z,64.56
2018-03-20T07:46:15.378Z,64.52
2018-03-20T07:47:15.384Z,64.65
2018-03-20T07:48:15.414Z,64.47
2018-03-20T07:49:15.416Z,64.38
2018-03-20T07:50:15.395Z,64.1
2018-03-20T07:51:15.411Z,64.04
2018-03-20T07:52:15.436Z,63.91
2018-03-20T07:53:15.420Z,63.37
2018-03-20T07:54:15.434Z,63.48
2018-03-20T07:55:15.435Z,63.73
2018-03-20T07:56:15.441Z,63.71
2018-03-20T07:57:15.435Z,64.18
2018-03-20T07:58:15.456Z,64.08
2018-03-20T07:59:15.464Z,64.19
2018-03-20T08:00:15.589Z,64.08
2018-03-20T08:01:15.467Z,63.82
2018-03-20T08:02:15.467Z,64.22
2018-03-20T08:03:15.472Z,64.13
2018-03-20T08:04:15.476Z,64.06
2018-03-20T08:05:15.502Z,63.99
2018-03-20T08:06:15.484Z,64
2018-03-20T08:07:15.481Z,63.53
2018-03-20T08:08:15.488Z,63.54
2018-03-20T08:09:15.502Z,63.79
2018-03-20T08:10:15.538Z,63.96
2018-03-20T08:11:15.524Z,63.13
2018-03-20T08:12:15.507Z,62.38
2018-03-20T08:13:15.516Z,62.05
2018-03-20T08:14:15.524Z,61.77
2018-03-20T08:15:15.557Z,61.4
2018-03-20T08:16:15.538Z,61.45
2018-03-20T08:17:15.540Z,61.28
2018-03-20T08:18:15.536Z,60.6
2018-03-20T08:19:15.534Z,60.54
2018-03-20T08:20:15.587Z,60.67
2018-03-20T08:21:15.548Z,60.17
2018-03-20T08:22:15.552Z,61.31
2018-03-20T08:23:15.591Z,61.62
2018-03-20T08:24:15.553Z,60.82
2018-03-20T08:25:15.578Z,60.02
2018-03-20T08:26:15.559Z,59.79
2018-03-20T08:27:15.555Z,59.34
2018-03-20T08:28:15.599Z,60.69
2018-03-20T08:29:15.710Z,60.65
2018-03-20T08:30:15.578Z,60.39
2018-03-20T08:31:15.583Z,60.07
2018-03-20T08:32:15.576Z,59.91
2018-03-20T08:33:15.577Z,59.42
2018-03-20T08:34:15.573Z,59.04
2018-03-20T08:35:15.578Z,59.15
2018-03-20T08:36:15.575Z,58.87
2018-03-20T08:37:15.583Z,59.08
2018-03-20T08:38:15.653Z,58.51
2018-03-20T08:39:15.615Z,58.75
2018-03-20T08:40:15.645Z,58.57
2018-03-20T08:41:15.595Z,58.56
2018-03-20T08:42:15.593Z,58.95
2018-03-20T08:43:15.596Z,57.96
2018-03-20T08:44:15.598Z,57.46
2018-03-20T08:45:15.708Z,58.06
2018-03-20T08:46:15.607Z,58.7
2018-03-20T08:47:15.604Z,57.5
2018-03-20T08:48:15.607Z,56.93
2018-03-20T08:49:15.603Z,56.05
2018-03-20T08:50:15.640Z,55.27
2018-03-20T08:51:15.627Z,55.16
2018-03-20T08:52:15.624Z,56.32
2018-03-20T08:53:15.625Z,57.28
2018-03-20T08:54:15.631Z,57.38
2018-03-20T08:55:15.651Z,57.38
2018-03-20T08:56:15.772Z,57.05
2018-03-20T08:57:15.762Z,57.64
2018-03-20T08:58:15.645Z,56.61
2018-03-20T08:59:15.658Z,56.61
2018-03-20T09:00:15.806Z,54.97
2018-03-20T09:01:15.676Z,55.1
2018-03-20T09:02:15.681Z,52.14
2018-03-20T09:03:15.677Z,52.58
2018-03-20T09:04:15.694Z,51.93
2018-03-20T09:05:15.821Z,50.33
2018-03-20T09:06:15.716Z,50.54
2018-03-20T09:07:15.732Z,51.82
2018-03-20T09:08:15.706Z,52.94
2018-03-20T09:09:15.732Z,52.02
2018-03-20T09:10:15.759Z,51.76
2018-03-20T09:11:15.756Z,51.52
2018-03-20T09:12:15.787Z,52.92
2018-03-20T09:13:15.775Z,52.17
2018-03-20T09:14:15.791Z,51.77
2018-03-20T09:15:15.749Z,52.05
2018-03-20T09:16:15.982Z,51.37
2018-03-20T09:17:15.719Z,52.81
2018-03-20T09:18:15.707Z,53.29
2018-03-20T09:19:15.713Z,52.31
2018-03-20T09:20:15.735Z,51.71
2018-03-20T09:21:15.735Z,51.05
2018-03-20T09:22:15.729Z,51.1
2018-03-20T09:23:15.743Z,49.26
2018-03-20T09:24:15.737Z,49
2018-03-20T09:25:15.740Z,50.35
2018-03-20T09:26:15.766Z,50.01
2018-03-20T09:27:15.762Z,50.14
2018-03-20T09:28:15.742Z,49.93
2018-03-20T09:29:15.735Z,51.27
2018-03-20T09:30:15.740Z,51.16
2018-03-20T09:31:15.787Z,50
2018-03-20T09:32:15.756Z,48.79
2018-03-20T09:33:15.754Z,50.18
2018-03-20T09:34:15.776Z,50.82
2018-03-20T09:35:15.756Z,50.22
2018-03-20T09:36:15.787Z,46.55
2018-03-20T09:37:15.780Z,45.34
2018-03-20T09:38:15.797Z,44.05
2018-03-20T09:39:15.780Z,43.54
2018-03-20T09:40:15.786Z,43.83
2018-03-20T09:41:16.264Z,45.07
2018-03-20T09:42:15.802Z,43.78
2018-03-20T09:43:15.810Z,43.36
2018-03-20T09:44:15.851Z,42.06
2018-03-20T09:45:15.794Z,43.6
2018-03-20T09:46:15.790Z,43.95
2018-03-20T09:47:15.798Z,44.67
2018-03-20T09:48:15.802Z,42.98
2018-03-20T09:49:15.801Z,42.29
2018-03-20T09:50:15.960Z,43.26
2018-03-20T09:51:16.166Z,42.57
2018-03-20T09:52:15.823Z,43.47
2018-03-20T09:53:15.819Z,43.94
2018-03-20T09:54:15.921Z,43.14
2018-03-20T09:55:15.820Z,42.06
2018-03-20T09:56:15.849Z,41.86
2018-03-20T09:57:15.826Z,42.02
2018-03-20T09:58:15.814Z,42.94
2018-03-20T09:59:15.825Z,41.35
2018-03-20T10:00:15.961Z,42.08
2018-03-20T10:01:15.820Z,41.74
2018-03-20T10:02:15.829Z,42.4
2018-03-20T10:03:15.820Z,42.34
2018-03-20T10:04:15.824Z,41.99
2018-03-20T10:05:15.833Z,41.47
2018-03-20T10:06:15.855Z,42.53
2018-03-20T10:07:15.833Z,45.05
2018-03-20T10:08:15.835Z,44.28
2018-03-20T10:09:15.837Z,43.36
2018-03-20T10:10:15.841Z,47.05
2018-03-20T10:11:15.843Z,49.35
2018-03-20T10:12:15.979Z,50.59
2018-03-20T10:13:15.885Z,49.93
2018-03-20T10:14:15.858Z,50.26
2018-03-20T10:15:15.893Z,51.27
2018-03-20T10:16:15.886Z,51.23
2018-03-20T10:17:16.138Z,51.38
2018-03-20T10:18:15.878Z,51.23
2018-03-20T10:19:15.931Z,50.81
2018-03-20T10:20:16.340Z,51.32
2018-03-20T10:21:15.890Z,51.31
2018-03-20T10:22:15.916Z,50.82
2018-03-20T10:23:15.903Z,48.95
2018-03-20T10:24:15.906Z,48.3
2018-03-20T10:25:15.918Z,47.67
2018-03-20T10:26:16.080Z,47.02
2018-03-20T10:27:15.935Z,47.64
2018-03-20T10:28:15.911Z,47.97
2018-03-20T10:29:15.913Z,48.11
2018-03-20T10:30:15.915Z,47.83
2018-03-20T10:31:15.922Z,47.68
2018-03-20T10:32:15.912Z,47.87
2018-03-20T10:33:15.933Z,46.43
2018-03-20T10:34:15.938Z,45.16
2018-03-20T10:35:15.927Z,43.91
2018-03-20T10:36:15.908Z,42.89
2018-03-20T10:37:15.949Z,44.12
2018-03-20T10:38:15.974Z,43.61
2018-03-20T10:39:15.930Z,44.46
2018-03-20T10:40:15.933Z,44.33
2018-03-20T10:41:15.938Z,44.89
2018-03-20T10:42:15.948Z,45.25
2018-03-20T10:43:15.968Z,45.66
2018-03-20T10:44:15.950Z,44.75
2018-03-20T10:45:15.936Z,45.37
2018-03-20T10:46:15.935Z,45.63
2018-03-20T10:47:15.948Z,43.54
2018-03-20T10:48:15.983Z,44.15
2018-03-20T10:49:15.947Z,42.75
2018-03-20T10:50:15.960Z,45.06
2018-03-20T10:51:15.960Z,45.58
2018-03-20T10:52:15.972Z,45.56
2018-03-20T10:53:16.007Z,47.31
2018-03-20T10:54:15.970Z,47.66
2018-03-20T10:55:15.994Z,47.35
2018-03-20T10:56:15.974Z,46.5
2018-03-20T10:57:15.987Z,46.07
2018-03-20T10:58:16.105Z,46.85
2018-03-20T10:59:15.976Z,48.26
2018-03-20T11:00:15.993Z,47.42
2018-03-20T11:01:15.992Z,48.84
2018-03-20T11:02:16.016Z,48.46
2018-03-20T11:03:16.054Z,47.35
2018-03-20T11:04:16.056Z,47.98
2018-03-20T11:05:16.001Z,47.55
2018-03-20T11:06:16.004Z,47.25
2018-03-20T11:07:16.008Z,49.48
2018-03-20T11:08:16.055Z,49.66
2018-03-20T11:09:16.027Z,50.5
2018-03-20T11:10:16.034Z,49.74
2018-03-20T11:11:16.047Z,49.17
2018-03-20T11:12:16.026Z,50.67
2018-03-20T11:13:16.046Z,51.33
2018-03-20T11:14:16.033Z,51.7
2018-03-20T11:15:16.039Z,52.34
2018-03-20T11:16:16.044Z,53
2018-03-20T11:17:16.035Z,55.79
2018-03-20T11:18:16.052Z,61.44
2018-03-20T11:19:16.044Z,65.63
2018-03-20T11:20:16.063Z,67.94
2018-03-20T11:21:16.056Z,68.13
2018-03-20T11:22:16.062Z,71.56
2018-03-20T11:23:16.355Z,73.31
2018-03-20T11:24:16.074Z,73.83
2018-03-20T11:25:16.073Z,76.22
2018-03-20T11:26:16.063Z,78.59
2018-03-20T11:27:16.081Z,76.1
2018-03-20T11:28:16.128Z,77.02
2018-03-20T11:29:16.074Z,78.07
2018-03-20T11:30:16.083Z,79.3
2018-03-20T11:31:16.076Z,80.77
2018-03-20T11:32:16.085Z,81.64
2018-03-20T11:33:16.091Z,82.39
2018-03-20T11:34:16.098Z,82.81
2018-03-20T11:35:16.102Z,83.21
2018-03-20T11:36:16.112Z,84.51
2018-03-20T11:37:16.132Z,83.91
2018-03-20T11:38:16.145Z,83.92
2018-03-20T11:39:16.112Z,83.01
2018-03-20T11:40:16.108Z,83.18
2018-03-20T11:41:16.130Z,84.44
2018-03-20T11:42:16.112Z,83.37
2018-03-20T11:43:16.138Z,83.21
2018-03-20T11:44:16.144Z,82.54
2018-03-20T11:45:16.125Z,82.31
2018-03-20T11:46:16.133Z,83.05
2018-03-20T11:47:16.137Z,84.9
2018-03-20T11:48:16.445Z,83.61
2018-03-20T11:49:16.134Z,82.75
2018-03-20T11:50:16.143Z,82.41
2018-03-20T11:51:16.160Z,83.1
2018-03-20T11:52:16.150Z,83.49
2018-03-20T11:53:16.172Z,82.76
2018-03-20T11:54:16.160Z,82.81
2018-03-20T11:55:16.160Z,82.3
2018-03-20T11:56:16.157Z,82.97
2018-03-20T11:57:16.161Z,83.25
2018-03-20T11:58:16.196Z,81.57
2018-03-20T11:59:16.207Z,82.26
2018-03-20T12:00:16.165Z,82.94
2018-03-20T12:01:16.230Z,82.51
2018-03-20T12:02:16.362Z,82.93
2018-03-20T12:03:16.198Z,82.35
2018-03-20T12:04:16.198Z,80.75
2018-03-20T12:05:16.195Z,80.25
2018-03-20T12:06:16.187Z,78.96
2018-03-20T12:07:16.196Z,79.99
2018-03-20T12:08:16.203Z,78.6
2018-03-20T12:09:16.206Z,78.99
2018-03-20T12:10:16.213Z,78.3
2018-03-20T12:11:16.195Z,78.06
2018-03-20T12:12:16.205Z,78.42
2018-03-20T12:13:16.226Z,79.11
2018-03-20T12:14:16.202Z,78.58
2018-03-20T12:15:16.210Z,77.45
2018-03-20T12:16:16.239Z,77.09
2018-03-20T12:17:16.225Z,78.67
2018-03-20T12:18:16.251Z,77.16
2018-03-20T12:19:16.238Z,76.4
2018-03-20T12:20:16.226Z,76.36
2018-03-20T12:21:16.240Z,77.78
2018-03-20T12:22:16.247Z,78.2
2018-03-20T12:23:16.282Z,78.7
2018-03-20T12:24:16.258Z,77.07
2018-03-20T12:25:16.812Z,78.22
2018-03-20T12:26:16.254Z,76.92
2018-03-20T12:27:16.247Z,77.79
2018-03-20T12:28:16.245Z,77.86
2018-03-20T12:29:16.289Z,77.78
2018-03-20T12:30:16.265Z,76.33
2018-03-20T12:31:16.256Z,75.92
2018-03-20T12:32:16.259Z,75.64
2018-03-20T12:33:16.264Z,76.15
2018-03-20T12:34:16.323Z,76.34
2018-03-20T12:35:16.315Z,74.89
2018-03-20T12:36:16.288Z,75.54
2018-03-20T12:37:16.307Z,76.21
2018-03-20T12:38:16.285Z,75.87
2018-03-20T12:39:16.323Z,74.92
2018-03-20T12:40:16.280Z,74.36
2018-03-20T12:41:16.291Z,74.12
2018-03-20T12:42:16.296Z,72.95
2018-03-20T12:43:16.297Z,74.64
2018-03-20T12:44:16.319Z,74.04
2018-03-20T12:45:16.307Z,74.47
2018-03-20T12:46:16.309Z,74.18
2018-03-20T12:47:16.321Z,74.13
2018-03-20T12:48:16.314Z,73.32
2018-03-20T12:49:16.308Z,73.79
2018-03-20T12:50:16.324Z,72.71
2018-03-20T12:51:16.330Z,72.29
2018-03-20T12:52:16.328Z,72.02
2018-03-20T12:53:16.359Z,72.95
2018-03-20T12:54:16.323Z,72.83
2018-03-20T12:55:16.379Z,72.52